Time;durP1;ratioP1;P1;durP2;ratioP2;P2;SDS_P1;SDS_P2;PMS_P1;PMS_P2;Temp;Humidity;BMP_temperature;BMP_pressure;BME280_temperature;BME280_humidity;BME280_pressure;Samples;Min_cycle;Max_cycle;Signal;HPM_P1;HPM_P2
2022/04/21 00:00:33;;;;;;;13.35;5.47;;;;;;;9.38;nan;101495.19;4981616;28;20037;-60
2022/04/21 00:02:58;;;;;;;13.73;5.72;;;;;;;9.38;nan;101495.19;4979856;28;20022;-59
2022/04/21 00:05:24;;;;;;;14.68;5.35;;;;;;;9.38;nan;101497.84;4980009;28;20041;-60
2022/04/21 00:07:50;;;;;;;15.60;5.80;;;;;;;9.37;nan;101495.41;4985093;28;20034;-60
2022/04/21 00:10:17;;;;;;;13.68;6.07;;;;;;;9.34;nan;101498.53;4983812;28;20030;-59
2022/04/21 00:12:43;;;;;;;15.93;6.43;;;;;;;9.29;nan;101483.13;4984773;28;20117;-59
2022/04/21 00:15:10;;;;;;;13.73;5.70;;;;;;;9.23;nan;101492.03;4982489;28;20084;-59
2022/04/21 00:17:35;;;;;;;14.63;5.57;;;;;;;9.22;nan;101494.94;4984259;28;20095;-60
2022/04/21 00:20:01;;;;;;;16.70;5.72;;;;;;;9.23;nan;101491.22;4984332;28;20583;-60
2022/04/21 00:25:11;;;;;;;11.47;6.03;;;;;;;9.22;nan;101487.72;4979644;28;20443;-59
2022/04/21 00:27:42;;;;;;;10.90;6.32;;;;;;;9.21;nan;101478.06;4978040;28;20384;-60
2022/04/21 00:30:09;;;;;;;18.33;5.82;;;;;;;9.19;nan;101466.78;4980955;28;20523;-60
2022/04/21 00:32:36;;;;;;;14.25;6.05;;;;;;;9.14;nan;101463.94;4986136;28;20038;-60
2022/04/21 00:35:02;;;;;;;18.90;7.10;;;;;;;9.11;nan;101464.38;4984037;28;20038;-60
2022/04/21 00:37:28;;;;;;;15.10;5.93;;;;;;;9.07;nan;101469.34;4981374;28;20054;-60
2022/04/21 00:39:54;;;;;;;19.35;7.03;;;;;;;9.07;nan;101474.69;4985062;28;20038;-60
2022/04/21 00:42:19;;;;;;;19.52;6.38;;;;;;;9.09;nan;101487.84;4982008;28;20033;-60
2022/04/21 00:44:45;;;;;;;13.55;6.03;;;;;;;9.10;nan;101492.16;4982430;28;20117;-60
2022/04/21 00:47:11;;;;;;;15.35;6.32;;;;;;;9.09;nan;101477.16;4980617;28;20041;-60
2022/04/21 00:49:37;;;;;;;18.58;5.97;;;;;;;9.09;nan;101477.16;4980311;28;20034;-60
2022/04/21 00:52:03;;;;;;;14.48;5.68;;;;;;;9.11;nan;101472.41;4981548;28;20030;-60
2022/04/21 00:54:33;;;;;;;16.85;6.80;;;;;;;9.12;nan;101475.91;4979688;28;20113;-60
2022/04/21 00:57:03;;;;;;;16.90;6.32;;;;;;;9.12;nan;101481.25;4984479;28;20018;-60
2022/04/21 00:59:29;;;;;;;10.48;6.07;;;;;;;9.11;nan;101480.44;4984146;28;20144;-60
2022/04/21 01:04:41;;;;;;;13.30;5.43;;;;;;;9.08;nan;101479.00;4981456;28;20072;-60
2022/04/21 01:07:10;;;;;;;12.68;6.10;;;;;;;9.11;nan;101479.59;4983398;28;20053;-59
2022/04/21 01:09:37;;;;;;;15.15;5.85;;;;;;;9.08;nan;101473.66;4980262;28;20157;-60
2022/04/21 01:12:08;;;;;;;16.17;5.95;;;;;;;9.08;nan;101481.69;4983057;28;20029;-60
2022/04/21 01:14:37;;;;;;;13.45;5.70;;;;;;;9.09;nan;101483.31;4981456;28;20037;-60
2022/04/21 01:17:03;;;;;;;13.63;5.88;;;;;;;9.08;nan;101479.00;4981033;28;20035;-59
2022/04/21 01:19:28;;;;;;;11.95;5.35;;;;;;;9.07;nan;101474.69;4982509;28;20057;-59
2022/04/21 01:21:54;;;;;;;19.15;6.88;;;;;;;9.07;nan;101476.56;4983919;28;20660;-60
2022/04/21 01:24:19;;;;;;;12.95;5.82;;;;;;;9.06;nan;101470.41;4982649;28;20022;-59
2022/04/21 01:26:46;;;;;;;13.93;5.65;;;;;;;9.06;nan;101472.25;4980115;28;20643;-60
2022/04/21 01:29:12;;;;;;;16.20;6.57;;;;;;;9.06;nan;101469.59;4983543;28;20026;-60
2022/04/21 01:31:38;;;;;;;14.10;5.95;;;;;;;9.04;nan;101471.66;4980083;28;20508;-60
2022/04/21 01:34:04;;;;;;;19.58;6.72;;;;;;;9.02;nan;101461.19;4984357;28;20049;-59
2022/04/21 01:36:30;;;;;;;15.80;6.32;;;;;;;8.99;nan;101460.81;4982524;28;20038;-59
2022/04/21 01:41:40;;;;;;;13.95;6.03;;;;;;;8.95;nan;101459.59;4978944;28;20502;-60
2022/04/21 01:44:05;;;;;;;12.73;6.43;;;;;;;8.94;nan;101458.78;4984148;28;20030;-59
2022/04/21 01:46:31;;;;;;;15.63;6.20;;;;;;;8.92;nan;101452.84;4982196;28;20034;-59
2022/04/21 01:48:57;;;;;;;13.05;5.75;;;;;;;8.91;nan;101450.41;4982224;28;20034;-59
2022/04/21 01:51:22;;;;;;;14.23;5.93;;;;;;;8.91;nan;101453.06;4982888;28;20718;-59
2022/04/21 01:53:48;;;;;;;14.63;6.25;;;;;;;8.93;nan;101451.00;4981835;28;20065;-60
2022/04/21 01:56:14;;;;;;;12.63;5.25;;;;;;;8.91;nan;101448.53;4979506;28;20036;-60
2022/04/21 01:58:40;;;;;;;16.92;6.32;;;;;;;8.90;nan;101449.56;4983312;28;20058;-60
2022/04/21 02:01:06;;;;;;;10.98;6.05;;;;;;;8.88;nan;101451.66;4981145;28;20530;-60
2022/04/21 02:03:32;;;;;;;13.20;5.65;;;;;;;8.87;nan;101451.88;4981291;28;20034;-59
2022/04/21 02:05:58;;;;;;;9.77;4.68;;;;;;;8.87;nan;101441.19;4982922;28;20026;-59
2022/04/21 02:08:24;;;;;;;10.20;5.32;;;;;;;8.86;nan;101439.56;4982521;28;20022;-59
2022/04/21 02:10:49;;;;;;;16.60;5.82;;;;;;;8.84;nan;101445.13;4983391;28;20037;-58
2022/04/21 02:13:15;;;;;;;14.93;5.30;;;;;;;8.81;nan;101442.06;4985280;28;20034;-60
2022/04/21 02:15:41;;;;;;;9.35;5.43;;;;;;;8.78;nan;101433.44;4982217;28;20046;-59
2022/04/21 02:18:07;;;;;;;9.45;5.90;;;;;;;8.75;nan;101430.38;4979330;28;20049;-59
2022/04/21 02:20:32;;;;;;;13.88;4.93;;;;;;;8.76;nan;101424.81;4980685;28;20026;-60
2022/04/21 02:22:58;;;;;;;12.23;4.95;;;;;;;8.75;nan;101425.84;4980337;28;20415;-59
2022/04/21 02:25:23;;;;;;;10.52;4.40;;;;;;;8.74;nan;101429.56;4981002;28;20084;-59
2022/04/21 02:27:50;;;;;;;14.25;4.70;;;;;;;8.74;nan;101426.91;4980989;28;20034;-61
2022/04/21 02:30:17;;;;;;;10.52;4.72;;;;;;;8.75;nan;101438.41;4982028;28;20026;-59
2022/04/21 02:32:43;;;;;;;12.75;4.82;;;;;;;8.75;nan;101439.22;4982443;28;20408;-59
2022/04/21 02:35:10;;;;;;;10.10;5.00;;;;;;;8.74;nan;101437.59;4981903;28;20030;-60
2022/04/21 02:37:41;;;;;;;10.48;4.50;;;;;;;8.72;nan;101428.97;4981484;28;20057;-59
2022/04/21 02:40:09;;;;;;;12.95;4.70;;;;;;;8.71;nan;101427.34;4980360;28;20112;-59
2022/04/21 02:42:38;;;;;;;14.00;5.65;;;;;;;8.65;nan;101436.25;4980488;28;20105;-59
2022/04/21 02:45:05;;;;;;;11.88;5.05;;;;;;;8.63;nan;101430.31;4978029;28;20033;-59
2022/04/21 02:47:31;;;;;;;11.18;5.32;;;;;;;8.64;nan;101429.25;4980688;28;20034;-59
2022/04/21 02:49:57;;;;;;;14.48;6.25;;;;;;;8.66;nan;101432.53;4980805;28;20029;-59
2022/04/21 02:52:23;;;;;;;21.38;8.55;;;;;;;8.64;nan;101426.59;4975196;28;20045;-59
2022/04/21 02:57:32;;;;;;;23.65;11.05;;;;;;;8.64;nan;101431.94;4974079;28;21092;-59
2022/04/21 02:59:59;;;;;;;27.63;12.52;;;;;;;8.66;nan;101421.84;4975784;28;20030;-59
2022/04/21 03:02:25;;;;;;;27.38;11.98;;;;;;;8.68;nan;101427.78;4973979;28;20721;-60
2022/04/21 03:04:52;;;;;;;30.23;14.85;;;;;;;8.69;nan;101429.41;4975153;28;20030;-59
2022/04/21 03:07:20;;;;;;;25.20;10.55;;;;;;;8.63;nan;101441.00;4981380;28;20030;-60
2022/04/21 03:09:47;;;;;;;20.40;8.85;;;;;;;8.61;nan;101429.69;4976914;28;20112;-59
2022/04/21 03:12:13;;;;;;;20.15;8.68;;;;;;;8.64;nan;101441.81;4975339;28;20026;-59
2022/04/21 03:14:40;;;;;;;22.08;7.95;;;;;;;8.65;nan;101433.56;4979047;28;20049;-59
2022/04/21 03:17:07;;;;;;;13.90;6.50;;;;;;;8.66;nan;101437.88;4980318;28;20021;-59
2022/04/21 03:19:33;;;;;;;19.02;7.22;;;;;;;8.69;nan;101444.63;4980592;28;20041;-60
2022/04/21 03:24:44;;;;;;;22.38;8.05;;;;;;;8.70;nan;101446.25;4980811;28;20096;-60
2022/04/21 03:27:10;;;;;;;16.88;7.20;;;;;;;8.69;nan;101439.28;4980933;28;20144;-60
2022/04/21 03:29:37;;;;;;;17.17;6.57;;;;;;;8.67;nan;101447.53;4979049;28;20025;-59
2022/04/21 03:32:09;;;;;;;15.13;6.90;;;;;;;8.64;nan;101437.28;4980760;28;20044;-59
2022/04/21 03:34:36;;;;;;;13.80;6.22;;;;;;;8.65;nan;101446.94;4980236;28;20026;-59
2022/04/21 03:37:02;;;;;;;13.85;5.68;;;;;;;8.66;nan;101437.88;4978454;28;20031;-59
2022/04/21 03:39:27;;;;;;;16.67;6.22;;;;;;;8.64;nan;101434.59;4981273;28;20036;-60
2022/04/21 03:41:53;;;;;;;14.50;5.80;;;;;;;8.62;nan;101434.00;4984728;28;20037;-60
2022/04/21 03:44:22;;;;;;;17.00;6.35;;;;;;;8.61;nan;101426.19;4985954;28;20064;-59
2022/04/21 03:46:47;;;;;;;15.82;6.10;;;;;;;8.60;nan;101425.38;4984771;28;20027;-60
2022/04/21 03:49:13;;;;;;;13.55;6.38;;;;;;;8.58;nan;101421.28;4983230;28;20756;-59
2022/04/21 03:51:38;;;;;;;16.02;5.43;;;;;;;8.58;nan;101422.09;4982551;28;20041;-59
2022/04/21 03:54:04;;;;;;;16.20;6.10;;;;;;;8.59;nan;101426.41;4984494;28;20058;-59
2022/04/21 03:56:30;;;;;;;14.38;7.20;;;;;;;8.61;nan;101427.00;4983307;28;20534;-59
2022/04/21 03:58:57;;;;;;;15.20;6.60;;;;;;;8.62;nan;101423.31;4983869;28;20140;-59
2022/04/21 04:01:22;;;;;;;16.88;6.50;;;;;;;8.62;nan;101428.66;4983717;28;20030;-59
2022/04/21 04:03:48;;;;;;;18.35;6.72;;;;;;;8.61;nan;101432.34;4979262;28;20026;-59
2022/04/21 04:11:42;;;;;;;16.73;7.10;;;;;;;8.63;nan;101449.00;4986190;28;20053;-59
2022/04/21 04:14:08;;;;;;;23.08;6.93;;;;;;;8.62;nan;101447.38;4985262;28;20019;-59
2022/04/21 04:16:34;;;;;;;18.55;7.30;;;;;;;8.60;nan;101446.75;4984389;28;20026;-59
2022/04/21 04:19:05;;;;;;;17.75;6.72;;;;;;;8.59;nan;101447.78;4983615;28;20030;-59
2022/04/21 04:21:31;;;;;;;17.35;6.75;;;;;;;8.59;nan;101447.78;4978198;28;20034;-59
2022/04/21 04:24:00;;;;;;;18.55;6.63;;;;;;;8.58;nan;101446.16;4984141;28;20035;-59
2022/04/21 04:26:25;;;;;;;14.43;6.63;;;;;;;8.58;nan;101448.81;4979786;28;20026;-59
2022/04/21 04:28:51;;;;;;;12.77;7.20;;;;;;;8.59;nan;101437.09;4983624;28;20038;-59
2022/04/21 04:31:16;;;;;;;18.45;7.40;;;;;;;8.59;nan;101449.63;4981905;28;20036;-59
2022/04/21 04:33:42;;;;;;;18.13;7.35;;;;;;;8.58;nan;101438.13;4983214;28;20038;-59
2022/04/21 04:36:10;;;;;;;19.13;8.35;;;;;;;8.57;nan;101439.16;4982111;28;20026;-59
2022/04/21 04:38:40;;;;;;;21.08;7.47;;;;;;;8.57;nan;101438.34;4982482;28;20109;-59
2022/04/21 04:43:51;;;;;;;20.23;7.32;;;;;;;8.52;nan;101439.00;4963017;28;20133;-59
2022/04/21 04:46:35;;;;;;;13.95;6.25;;;;;;;8.53;nan;101439.81;4983826;28;20029;-59
2022/04/21 04:49:07;;;;;;;16.42;7.25;;;;;;;8.50;nan;101438.41;4985980;28;20034;-59
2022/04/21 04:51:34;;;;;;;16.10;7.60;;;;;;;8.53;nan;101440.66;4982954;28;20026;-59
2022/04/21 04:54:01;;;;;;;15.88;6.85;;;;;;;8.52;nan;101438.19;4980643;28;20030;-59
2022/04/21 04:56:27;;;;;;;21.73;8.63;;;;;;;8.54;nan;101444.13;4982607;28;20477;-59
2022/04/21 04:58:52;;;;;;;18.38;7.05;;;;;;;8.56;nan;101442.06;4982425;28;20041;-59
2022/04/21 05:01:45;;;;;;;16.27;6.55;;;;;;;8.52;nan;101443.53;4982307;28;20030;-59
2022/04/21 05:04:14;;;;;;;14.48;5.72;;;;;;;8.57;nan;101441.03;4980067;28;20108;-59
2022/04/21 05:06:48;;;;;;;14.13;6.47;;;;;;;8.60;nan;101446.75;4981235;28;20037;-59
2022/04/21 05:09:17;;;;;;;16.33;5.68;;;;;;;8.65;nan;101452.28;4985625;28;20789;-59
2022/04/21 05:11:48;;;;;;;15.57;6.07;;;;;;;8.68;nan;101451.81;4982947;28;20050;-59
2022/04/21 05:14:14;;;;;;;17.35;6.10;;;;;;;8.71;nan;101442.56;4981711;28;20030;-59
2022/04/21 05:16:40;;;;;;;14.82;5.78;;;;;;;8.73;nan;101451.97;4967184;28;20049;-59
2022/04/21 05:19:14;;;;;;;11.55;6.05;;;;;;;8.72;nan;101458.38;4981944;28;20031;-59
2022/04/21 05:21:40;;;;;;;17.08;5.90;;;;;;;8.76;nan;101464.09;4984552;28;20079;-62
2022/04/21 05:24:08;;;;;;;11.68;5.90;;;;;;;8.77;nan;101452.34;4985000;28;20103;-60
2022/04/21 05:26:34;;;;;;;15.50;5.18;;;;;;;8.77;nan;101450.50;4983499;28;20030;-60
2022/04/21 05:30:55;;;;;;;11.05;5.28;;;;;;;8.79;nan;101440.41;4982834;28;20026;-60
2022/04/21 05:31:56;;;;;;;14.13;5.78;;;;;;;8.77;nan;101441.66;4983727;28;21881;-58
2022/04/21 05:34:22;;;;;;;10.93;5.28;;;;;;;8.77;nan;101439.81;4985233;28;20022;-60
2022/04/21 05:36:48;;;;;;;11.65;4.90;;;;;;;8.79;nan;101444.94;4986298;28;20156;-60
2022/04/21 05:39:14;;;;;;;15.73;5.18;;;;;;;8.78;nan;101446.78;4985886;28;20117;-60
2022/04/21 05:41:40;;;;;;;9.80;5.15;;;;;;;8.80;nan;101457.28;4984526;28;20041;-60
2022/04/21 05:44:07;;;;;;;13.73;5.18;;;;;;;8.84;nan;101452.31;4984455;28;20076;-60
2022/04/21 05:46:32;;;;;;;14.13;4.85;;;;;;;8.86;nan;101459.06;4982530;28;20110;-60
2022/04/21 05:48:58;;;;;;;14.43;5.00;;;;;;;8.87;nan;101457.22;4983881;28;20029;-60
2022/04/21 05:51:24;;;;;;;15.45;6.38;;;;;;;8.89;nan;101449.78;4982014;28;20513;-60
2022/04/21 05:53:50;;;;;;;15.82;5.55;;;;;;;8.92;nan;101452.84;4983207;28;20065;-60
2022/04/21 05:56:16;;;;;;;13.48;6.40;;;;;;;8.94;nan;101453.44;4984299;28;20064;-61
2022/04/21 05:58:42;;;;;;;17.75;6.40;;;;;;;8.94;nan;101457.97;4984159;28;20437;-60
2022/04/21 06:01:09;;;;;;;15.38;5.85;;;;;;;8.95;nan;101459.59;4983472;28;20038;-60
2022/04/21 06:03:38;;;;;;;13.90;5.85;;;;;;;8.98;nan;101459.19;4982061;28;20026;-60
2022/04/21 06:06:08;;;;;;;11.85;5.32;;;;;;;9.02;nan;101463.03;4986373;28;20551;-60
2022/04/21 06:08:34;;;;;;;18.48;6.63;;;;;;;9.06;nan;101464.22;4982606;28;20616;-60
2022/04/21 06:11:00;;;;;;;11.52;5.30;;;;;;;9.10;nan;101462.75;4985427;28;20106;-60
2022/04/21 06:13:26;;;;;;;15.77;5.90;;;;;;;9.13;nan;101459.63;4987035;28;20514;-60
2022/04/21 06:15:52;;;;;;;13.90;5.38;;;;;;;9.13;nan;101458.81;4985578;28;20034;-60
2022/04/21 06:18:19;;;;;;;12.30;6.25;;;;;;;9.12;nan;101455.31;4984224;28;20049;-60
2022/04/21 06:20:46;;;;;;;16.02;6.10;;;;;;;9.09;nan;101450.41;4988273;28;20046;-61
2022/04/21 06:23:12;;;;;;;12.85;6.10;;;;;;;9.11;nan;101451.00;4983682;28;20034;-61
2022/04/21 06:25:38;;;;;;;16.52;6.13;;;;;;;9.17;nan;101444.00;4985245;28;20118;-60
2022/04/21 06:28:04;;;;;;;13.63;5.90;;;;;;;9.19;nan;101442.72;4986606;28;20103;-59
2022/04/21 06:30:30;;;;;;;13.68;6.13;;;;;;;9.22;nan;101450.28;4987636;28;20044;-61
2022/04/21 06:32:55;;;;;;;13.27;6.05;;;;;;;9.26;nan;101443.47;4984573;28;20026;-61
2022/04/21 06:35:21;;;;;;;13.27;5.88;;;;;;;9.31;nan;101434.75;4986432;28;20022;-61
2022/04/21 06:37:47;;;;;;;15.15;5.30;;;;;;;9.34;nan;101440.50;4988473;28;20021;-61
2022/04/21 06:40:13;;;;;;;10.43;6.00;;;;;;;9.34;nan;101437.84;4986550;28;20068;-61
2022/04/21 06:42:42;;;;;;;18.20;5.90;;;;;;;9.38;nan;101443.53;4983306;28;20037;-61
2022/04/21 06:48:08;;;;;;;14.63;5.50;;;;;;;9.38;nan;101444.38;4984510;28;20126;-61
2022/04/21 06:50:36;;;;;;;13.55;5.20;;;;;;;9.40;nan;101441.47;4984689;28;20472;-61
2022/04/21 06:53:04;;;;;;;13.45;5.65;;;;;;;9.44;nan;101453.34;4984371;28;20018;-61
2022/04/21 06:55:30;;;;;;;20.25;6.13;;;;;;;9.45;nan;101454.16;4985936;28;20148;-61
2022/04/21 06:57:56;;;;;;;12.60;5.10;;;;;;;9.45;nan;101467.53;4985253;28;20105;-61
2022/04/21 07:00:22;;;;;;;15.20;5.80;;;;;;;9.48;nan;101465.22;4985614;28;20038;-61
2022/04/21 07:02:51;;;;;;;13.32;6.32;;;;;;;9.45;nan;101471.03;4983599;28;20491;-61
2022/04/21 07:05:17;;;;;;;17.40;5.15;;;;;;;9.43;nan;101473.09;4985348;28;20018;-61
2022/04/21 07:07:43;;;;;;;12.80;6.13;;;;;;;9.47;nan;101473.47;4987815;28;20436;-60
2022/04/21 07:10:10;;;;;;;11.93;5.40;;;;;;;9.51;nan;101480.00;4985426;28;20113;-60
2022/04/21 07:12:36;;;;;;;15.63;5.57;;;;;;;9.55;nan;101476.69;4986864;28;20612;-61
2022/04/21 07:15:05;;;;;;;14.95;6.10;;;;;;;9.56;nan;101478.31;4983934;28;20082;-61
2022/04/21 07:17:31;;;;;;;15.40;6.22;;;;;;;9.59;nan;101471.69;4988806;28;20587;-61
2022/04/21 07:19:58;;;;;;;19.20;5.93;;;;;;;9.62;nan;101480.09;4987590;28;20040;-61
2022/04/21 07:22:25;;;;;;;16.95;6.90;;;;;;;9.69;nan;101480.00;4986206;28;20508;-60
2022/04/21 07:24:54;;;;;;;12.63;6.30;;;;;;;9.72;nan;101476.91;4988497;28;20774;-61
2022/04/21 07:27:20;;;;;;;15.43;6.25;;;;;;;9.81;nan;101480.91;4989012;28;20026;-61
2022/04/21 07:29:45;;;;;;;18.45;6.50;;;;;;;9.92;nan;101482.00;4988809;28;20026;-61
2022/04/21 07:32:11;;;;;;;18.63;6.28;;;;;;;10.04;nan;101476.69;4982884;28;20408;-61
2022/04/21 07:34:37;;;;;;;14.45;5.88;;;;;;;10.11;nan;101474.75;4983482;28;20158;-61
2022/04/21 07:37:04;;;;;;;17.33;6.75;;;;;;;10.21;nan;101470.50;4984684;28;20387;-61
2022/04/21 07:39:29;;;;;;;16.60;5.68;;;;;;;10.32;nan;101470.78;4985721;28;20031;-61
2022/04/21 07:41:57;;;;;;;20.85;6.25;;;;;;;10.45;nan;101475.94;4987962;28;20049;-61
2022/04/21 07:44:23;;;;;;;17.30;5.97;;;;;;;10.54;nan;101475.38;4988980;28;20180;-61
2022/04/21 07:46:48;;;;;;;14.50;5.30;;;;;;;10.63;nan;101477.72;4987351;28;20026;-61
2022/04/21 07:54:43;;;;;;;17.27;5.95;;;;;;;10.92;nan;101482.19;4986112;28;20583;-61
2022/04/21 07:57:09;;;;;;;14.15;6.53;;;;;;;11.00;nan;101489.88;4990818;28;20034;-61
2022/04/21 07:59:35;;;;;;;19.98;6.15;;;;;;;11.08;nan;101486.84;4988283;28;20128;-61
2022/04/21 08:02:01;;;;;;;13.93;6.00;;;;;;;11.14;nan;101491.28;4986628;28;20760;-61
2022/04/21 08:04:27;;;;;;;10.90;5.78;;;;;;;11.18;nan;101486.28;4986119;28;20085;-60
2022/04/21 08:06:54;;;;;;;13.95;6.30;;;;;;;11.23;nan;101493.63;4984852;28;20022;-61
2022/04/21 08:09:20;;;;;;;16.50;6.47;;;;;;;11.32;nan;101497.59;4987010;28;21515;-61
2022/04/21 08:11:46;;;;;;;13.25;5.70;;;;;;;11.38;nan;101502.00;4987514;28;20021;-61
2022/04/21 08:14:16;;;;;;;12.55;5.90;;;;;;;11.47;nan;101500.59;4987846;28;20080;-61
2022/04/21 08:16:44;;;;;;;13.00;6.03;;;;;;;11.54;nan;101500.47;4989849;28;20030;-61
2022/04/21 08:19:10;;;;;;;11.75;5.22;;;;;;;11.57;nan;101506.19;4987936;28;20026;-61
2022/04/21 08:21:37;;;;;;;12.27;5.63;;;;;;;11.64;nan;101511.41;4990501;28;20393;-61
2022/04/21 08:32:41;;;;;;;14.35;5.78;;;;;;;11.87;nan;101494.47;4990206;28;20038;-61
2022/04/21 08:35:07;;;;;;;11.52;4.47;;;;;;;11.91;nan;101501.81;4987382;28;20027;-61
2022/04/21 08:37:36;;;;;;;12.48;5.00;;;;;;;11.99;nan;101509.47;4988358;28;20030;-61
2022/04/21 08:40:06;;;;;;;12.82;5.45;;;;;;;12.03;nan;101501.78;4985070;28;20038;-61
2022/04/21 08:42:37;;;;;;;13.23;5.72;;;;;;;12.13;nan;101510.03;4983126;28;20038;-61
2022/04/21 08:45:03;;;;;;;14.65;5.40;;;;;;;12.21;nan;101515.03;4984736;28;20536;-61
2022/04/21 08:47:29;;;;;;;10.70;5.18;;;;;;;12.24;nan;101517.22;4982493;28;20131;-61
2022/04/21 08:50:12;;;;;;;9.50;5.20;;;;;;;12.24;nan;101522.59;4985760;28;20492;-61
2022/04/21 08:52:40;;;;;;;11.52;5.10;;;;;;;12.32;nan;101519.53;4985938;28;20034;-61
2022/04/21 08:55:06;;;;;;;7.72;4.57;;;;;;;12.35;nan;101520.91;4985666;28;20544;-61
2022/04/21 08:57:32;;;;;;;8.55;4.75;;;;;;;12.40;nan;101521.84;4986735;28;20149;-61
2022/04/21 08:59:58;;;;;;;8.68;4.25;;;;;;;12.47;nan;101526.25;4985513;28;20034;-61
2022/04/21 09:02:42;;;;;;;9.48;5.15;;;;;;;12.45;nan;101525.66;4985697;28;20627;-60
2022/04/21 09:05:08;;;;;;;9.45;4.90;;;;;;;12.51;nan;101522.81;4986028;28;20095;-61
2022/04/21 09:07:48;;;;;;;9.52;5.15;;;;;;;12.50;nan;101523.88;4983184;28;20042;-61
2022/04/21 09:10:15;;;;;;;10.85;5.78;;;;;;;12.61;nan;101524.88;4985224;28;20030;-61
2022/04/21 09:12:44;;;;;;;8.52;5.05;;;;;;;12.69;nan;101519.91;4987397;28;21765;-61
2022/04/21 09:15:15;;;;;;;11.02;5.03;;;;;;;12.79;nan;101526.53;4983521;28;20069;-61
2022/04/21 09:17:56;;;;;;;9.07;5.35;;;;;;;12.86;nan;101530.69;4985273;28;20029;-61
2022/04/21 09:20:36;;;;;;;11.32;4.90;;;;;;;12.92;nan;101527.00;4984316;28;20050;-61
2022/04/21 09:23:05;;;;;;;8.45;5.38;;;;;;;13.02;nan;101535.25;4984379;28;20038;-61
2022/04/21 09:25:42;;;;;;;8.25;5.22;;;;;;;13.11;nan;101535.66;4983676;28;20048;-61
2022/04/21 09:28:32;;;;;;;7.55;5.20;;;;;;;13.14;nan;101537.88;4985244;28;20042;-61
2022/04/21 09:31:02;;;;;;;7.45;4.95;;;;;;;13.23;nan;101532.91;4982691;28;20022;-61
2022/04/21 09:33:44;;;;;;;9.38;5.20;;;;;;;13.28;nan;101533.81;4985891;28;20607;-61
2022/04/21 09:36:11;;;;;;;11.60;5.43;;;;;;;13.34;nan;101532.00;4985472;28;20026;-61
2022/04/21 09:38:37;;;;;;;13.45;5.93;;;;;;;13.41;nan;101538.00;4985051;28;20096;-60
2022/04/21 09:41:06;;;;;;;9.00;5.57;;;;;;;13.46;nan;101535.38;4984704;28;20084;-60
2022/04/21 09:43:37;;;;;;;10.35;5.40;;;;;;;13.46;nan;101524.63;4985571;28;20061;-61
2022/04/21 09:46:19;;;;;;;8.40;4.93;;;;;;;13.46;nan;101532.69;4983535;28;20030;-61
2022/04/21 09:48:51;;;;;;;8.48;5.35;;;;;;;13.48;nan;101535.97;4979096;28;20034;-61
2022/04/21 09:51:22;;;;;;;9.00;5.78;;;;;;;13.53;nan;101533.34;4981589;28;20085;-61
2022/04/21 09:54:02;;;;;;;12.40;5.55;;;;;;;13.53;nan;101532.53;4983047;28;20022;-61
2022/04/21 09:56:40;;;;;;;11.10;5.13;;;;;;;13.48;nan;101527.91;4979788;28;20113;-61
2022/04/21 09:59:10;;;;;;;11.18;4.93;;;;;;;13.53;nan;101530.66;4978807;28;20412;-61
2022/04/21 10:01:38;;;;;;;9.27;5.50;;;;;;;13.59;nan;101529.66;4982800;28;20538;-61
2022/04/21 10:04:11;;;;;;;8.60;5.32;;;;;;;13.66;nan;101528.66;4983161;28;20418;-61
2022/04/21 10:06:41;;;;;;;8.93;5.47;;;;;;;13.73;nan;101521.22;4983456;28;20026;-61
2022/04/21 10:09:07;;;;;;;8.55;5.18;;;;;;;13.78;nan;101526.66;4984118;28;20467;-61
2022/04/21 10:11:34;;;;;;;9.55;5.25;;;;;;;13.80;nan;101529.91;4981078;28;20221;-61
2022/04/21 10:13:59;;;;;;;10.85;5.65;;;;;;;13.81;nan;101532.34;4981549;28;20072;-61
2022/04/21 10:16:28;;;;;;;7.57;5.20;;;;;;;13.84;nan;101526.47;4983307;28;20548;-61
2022/04/21 10:18:59;;;;;;;7.70;5.10;;;;;;;13.91;nan;101523.59;4978408;28;20439;-61
2022/04/21 10:21:32;;;;;;;6.68;4.68;;;;;;;13.98;nan;101524.19;4983191;28;20105;-61
2022/04/21 10:23:59;;;;;;;10.73;5.20;;;;;;;14.03;nan;101532.38;4969409;28;20096;-61
2022/04/21 10:26:37;;;;;;;10.13;4.68;;;;;;;14.01;nan;101531.00;4981257;28;20392;-61
2022/04/21 10:29:17;;;;;;;8.70;4.53;;;;;;;14.08;nan;101516.25;4975976;28;20041;-61
2022/04/21 10:31:50;;;;;;;6.68;4.43;;;;;;;14.21;nan;101523.94;4980216;28;20035;-61
2022/04/21 10:34:37;;;;;;;8.20;4.68;;;;;;;14.27;nan;101519.41;4983273;28;20159;-61
2022/04/21 10:37:19;;;;;;;11.07;4.65;;;;;;;14.35;nan;101513.56;4980742;28;20080;-61
2022/04/21 10:40:07;;;;;;;6.82;4.72;;;;;;;14.40;nan;101515.50;4981371;28;20026;-61
2022/04/21 10:42:51;;;;;;;6.40;4.30;;;;;;;14.51;nan;101514.56;4982246;28;20095;-61
2022/04/21 10:45:22;;;;;;;6.03;4.20;;;;;;;14.64;nan;101524.13;4981359;28;20087;-61
2022/04/21 10:48:09;;;;;;;6.82;3.60;;;;;;;14.71;nan;101520.13;4982127;28;20117;-61
2022/04/21 10:50:36;;;;;;;6.68;4.15;;;;;;;14.82;nan;101515.66;4980427;28;20082;-61
2022/04/21 10:58:35;;;;;;;4.90;3.60;;;;;;;15.01;nan;101510.66;4982661;28;20492;-61
2022/04/21 11:01:08;;;;;;;4.97;3.15;;;;;;;15.03;nan;101508.50;4982238;28;20124;-61
2022/04/21 11:03:34;;;;;;;4.50;3.40;;;;;;;15.07;nan;101504.22;4981790;28;20543;-61
2022/04/21 11:06:11;;;;;;;5.60;2.90;;;;;;;15.08;nan;101501.28;4962456;28;20022;-61
2022/04/21 11:08:37;;;;;;;4.22;3.13;;;;;;;15.19;nan;101502.16;4982245;28;20428;-61
2022/04/21 11:11:04;;;;;;;4.70;3.40;;;;;;;15.29;nan;101506.81;4981440;28;20038;-61
2022/04/21 11:13:47;;;;;;;3.72;2.70;;;;;;;15.32;nan;101498.19;4980853;28;20018;-61
2022/04/21 11:16:41;;;;;;;4.55;2.97;;;;;;;15.40;nan;101501.19;4981041;28;20133;-61
2022/04/21 11:19:29;;;;;;;3.88;3.10;;;;;;;15.57;nan;101492.09;4976553;28;20035;-61
2022/04/21 11:22:02;;;;;;;7.38;3.58;;;;;;;15.74;nan;101491.94;4983983;28;20042;-61
2022/04/21 11:24:58;;;;;;;6.03;3.42;;;;;;;15.74;nan;101498.16;4978598;28;20493;-61
2022/04/21 11:27:24;;;;;;;5.75;3.72;;;;;;;15.87;nan;101489.56;4978482;28;20030;-61
2022/04/21 11:29:50;;;;;;;4.85;3.55;;;;;;;15.96;nan;101495.25;4983408;28;20044;-61
2022/04/21 11:32:19;;;;;;;3.95;3.22;;;;;;;16.05;nan;101500.97;4981811;28;20103;-61
2022/04/21 11:35:02;;;;;;;6.90;3.67;;;;;;;16.14;nan;101489.34;4982987;28;20558;-61
2022/04/21 11:37:50;;;;;;;5.60;3.40;;;;;;;16.27;nan;101490.72;4981122;28;20023;-62
2022/04/21 11:40:20;;;;;;;4.47;3.60;;;;;;;16.37;nan;101493.47;4981970;28;20034;-61
2022/04/21 11:42:47;;;;;;;6.25;3.60;;;;;;;16.41;nan;101496.44;4982122;28;20099;-61
2022/04/21 11:45:20;;;;;;;5.03;3.47;;;;;;;16.39;nan;101494.00;4981659;28;20037;-61
2022/04/21 11:47:46;;;;;;;6.90;3.47;;;;;;;16.34;nan;101491.31;4981891;28;20122;-61
2022/04/21 11:50:17;;;;;;;4.32;3.35;;;;;;;16.31;nan;101497.22;4979540;28;20035;-61
2022/04/21 11:52:43;;;;;;;4.78;3.25;;;;;;;16.35;nan;101492.94;4985739;28;20113;-61
2022/04/21 11:55:09;;;;;;;4.15;3.47;;;;;;;16.39;nan;101490.50;4981791;28;20023;-61
2022/04/21 11:57:44;;;;;;;5.85;3.03;;;;;;;16.39;nan;101496.72;4980353;28;20018;-61
2022/04/21 12:00:11;;;;;;;5.43;3.65;;;;;;;16.44;nan;101493.19;4981676;28;20090;-61
2022/04/21 12:08:11;;;;;;;7.32;3.88;;;;;;;16.49;nan;101504.81;4980421;28;20067;-61
2022/04/21 12:10:37;;;;;;;7.03;3.45;;;;;;;16.52;nan;101495.38;4984459;28;20030;-62
2022/04/21 12:13:03;;;;;;;6.07;3.65;;;;;;;16.59;nan;101496.72;4984831;28;20026;-61
2022/04/21 12:15:30;;;;;;;8.07;3.60;;;;;;;16.67;nan;101491.88;4984071;28;20035;-61
2022/04/21 12:18:00;;;;;;;3.70;3.08;;;;;;;16.76;nan;101495.69;4980091;28;20031;-61
2022/04/21 12:20:26;;;;;;;3.80;3.13;;;;;;;16.85;nan;101499.44;4981039;28;20034;-62
2022/04/21 12:22:51;;;;;;;4.82;3.35;;;;;;;16.89;nan;101492.44;4981485;28;20026;-61
2022/04/21 12:25:17;;;;;;;5.82;3.70;;;;;;;16.91;nan;101491.06;4984640;28;20022;-61
2022/04/21 12:27:44;;;;;;;4.70;3.47;;;;;;;16.95;nan;101498.66;4985002;28;20034;-61
2022/04/21 12:30:15;;;;;;;4.47;3.45;;;;;;;16.92;nan;101487.28;4979627;28;20050;-62
2022/04/21 12:32:49;;;;;;;6.05;4.13;;;;;;;16.89;nan;101489.72;4984139;28;20030;-61
2022/04/21 12:35:15;;;;;;;3.73;3.33;;;;;;;16.95;nan;101493.22;5034962;22;20037;-60
2022/04/21 12:38:50;;;;;;;6.07;3.40;;;;;;;16.96;nan;101497.56;5043161;28;20144;-60